Halfway, Kentucky
Current Conditions -  °F | °C
As of 1:53 AM on Saturday 20 Dec 2014 (Local Time) from KBWG Reporting Station
Overcast Overcast  
Wind Chill: 33°   Ceiling: 9000
Heat Index: 33°   Visibility: 9mi
Dew Point: 24°   Wind: 3mph
Humidity: 70%   Direction: 360°N
Pressure: 30.25"   Gusts: NA
Location:  36.8°N, 86.3°W
Report Text: KBWG 200753Z AUTO 36003KT 9SM OVC090 01/M04 A3025 RMK AO2 SLP246 T00061044
Loading
Personal Weather Stations






























Interactive Weather Map New forecast layout! Learn more

10-Day Weather Forecast

Advertisements
Track Severe Weather on mobile